createdAt,value
2023-03-22T00:00:06.761Z,100.00
2023-03-22T00:02:34.518Z,100.00
2023-03-22T00:05:02.292Z,100.00
2023-03-22T00:07:29.905Z,100.00
2023-03-22T00:09:57.554Z,100.00
2023-03-22T00:12:25.135Z,100.00
2023-03-22T00:14:54.111Z,100.00
2023-03-22T00:17:21.771Z,100.00
2023-03-22T00:19:49.413Z,100.00
2023-03-22T00:22:17.189Z,100.00
2023-03-22T00:24:44.768Z,100.00
2023-03-22T00:27:13.037Z,100.00
2023-03-22T00:29:40.672Z,100.00
2023-03-22T00:32:09.594Z,100.00
2023-03-22T00:34:37.339Z,100.00
2023-03-22T00:37:04.981Z,100.00
2023-03-22T00:39:32.614Z,100.00
2023-03-22T00:42:00.174Z,100.00
2023-03-22T00:44:27.778Z,100.00
2023-03-22T00:46:55.411Z,100.00
2023-03-22T00:49:24.526Z,100.00
2023-03-22T00:51:52.091Z,100.00
2023-03-22T00:54:20.774Z,100.00
2023-03-22T00:56:48.706Z,100.00
2023-03-22T00:59:16.736Z,100.00
2023-03-22T01:01:44.311Z,100.00
2023-03-22T01:04:11.890Z,100.00
2023-03-22T01:06:40.809Z,100.00
2023-03-22T01:09:08.397Z,100.00
2023-03-22T01:11:35.938Z,100.00
2023-03-22T01:14:03.500Z,100.00
2023-03-22T01:16:31.146Z,100.00
2023-03-22T01:18:58.697Z,100.00
2023-03-22T01:21:26.350Z,100.00
2023-03-22T01:23:55.332Z,100.00
2023-03-22T01:26:23.075Z,100.00
2023-03-22T01:28:50.640Z,100.00
2023-03-22T01:31:18.602Z,100.00
2023-03-22T01:33:46.330Z,100.00
2023-03-22T01:36:13.948Z,100.00
2023-03-22T01:38:41.471Z,100.00
2023-03-22T01:41:11.532Z,100.00
2023-03-22T01:43:39.455Z,100.00
2023-03-22T01:46:07.827Z,100.00
2023-03-22T01:48:39.970Z,100.00
2023-03-22T01:51:11.937Z,100.00
2023-03-22T01:53:44.955Z,100.00
2023-03-22T01:56:14.307Z,100.00
2023-03-22T01:58:42.619Z,100.00
2023-03-22T02:01:11.668Z,100.00
2023-03-22T02:03:48.354Z,100.00
2023-03-22T02:06:17.357Z,100.00
2023-03-22T02:08:45.164Z,100.00
2023-03-22T02:11:17.676Z,100.00
2023-03-22T02:14:11.306Z,100.00
2023-03-22T02:16:55.418Z,100.00
2023-03-22T02:19:48.193Z,100.00
2023-03-22T02:22:44.914Z,100.00
2023-03-22T02:25:48.885Z,100.00
2023-03-22T02:28:35.121Z,100.00
2023-03-22T02:31:33.439Z,100.00
2023-03-22T02:34:32.689Z,100.00
2023-03-22T02:37:36.175Z,100.00
2023-03-22T02:40:14.338Z,100.00
2023-03-22T02:42:54.277Z,100.00
2023-03-22T02:45:29.963Z,100.00
2023-03-22T02:48:05.791Z,100.00
2023-03-22T02:50:43.105Z,100.00
2023-03-22T02:53:18.896Z,100.00
2023-03-22T02:55:55.542Z,100.00
2023-03-22T02:58:29.260Z,100.00
2023-03-22T03:01:03.019Z,100.00
2023-03-22T03:03:33.124Z,100.00
2023-03-22T03:06:05.983Z,100.00
2023-03-22T03:08:36.096Z,100.00
2023-03-22T03:11:05.904Z,100.00
2023-03-22T03:13:33.496Z,100.00
2023-03-22T03:16:03.726Z,100.00
2023-03-22T03:18:42.087Z,100.00
2023-03-22T03:21:24.630Z,100.00
2023-03-22T03:24:03.029Z,100.00
2023-03-22T03:26:43.265Z,100.00
2023-03-22T03:29:21.128Z,100.00
2023-03-22T03:32:01.241Z,100.00
2023-03-22T03:34:38.182Z,100.00
2023-03-22T03:37:11.100Z,100.00
2023-03-22T03:39:45.623Z,100.00
2023-03-22T03:42:18.479Z,100.00
2023-03-22T03:44:46.417Z,100.00
2023-03-22T03:47:15.935Z,100.00
2023-03-22T03:49:43.483Z,100.00
2023-03-22T03:52:11.035Z,100.00
2023-03-22T03:54:38.782Z,100.00
2023-03-22T03:57:06.365Z,100.00
2023-03-22T03:59:35.384Z,100.00
2023-03-22T04:02:03.038Z,100.00
2023-03-22T04:04:30.695Z,100.00
2023-03-22T04:07:00.232Z,100.00
2023-03-22T04:09:30.841Z,100.00
2023-03-22T04:11:58.555Z,100.00
2023-03-22T04:14:26.921Z,100.00
2023-03-22T04:16:56.315Z,100.00
2023-03-22T04:19:24.364Z,100.00
2023-03-22T04:21:52.171Z,100.00
2023-03-22T04:24:21.849Z,100.00
2023-03-22T04:26:50.304Z,100.00
2023-03-22T04:29:18.586Z,100.00
2023-03-22T04:31:46.112Z,100.00
2023-03-22T04:34:15.004Z,100.00
2023-03-22T04:36:42.570Z,100.00
2023-03-22T04:39:11.592Z,100.00
2023-03-22T04:41:39.274Z,100.00
2023-03-22T04:44:07.686Z,100.00
2023-03-22T04:46:36.699Z,100.00
2023-03-22T04:49:05.752Z,100.00
2023-03-22T04:51:34.833Z,100.00
2023-03-22T04:54:02.522Z,100.00
2023-03-22T04:56:30.454Z,100.00
2023-03-22T04:58:58.097Z,100.00
2023-03-22T05:01:25.775Z,100.00
2023-03-22T05:03:53.642Z,100.00
2023-03-22T05:06:22.360Z,100.00
2023-03-22T05:08:51.342Z,100.00
2023-03-22T05:11:20.080Z,100.00
2023-03-22T05:13:47.716Z,100.00
2023-03-22T05:16:15.519Z,100.00
2023-03-22T05:18:43.222Z,100.00
2023-03-22T05:21:12.337Z,100.00
2023-03-22T05:23:40.052Z,100.00
2023-03-22T05:26:10.131Z,100.00
2023-03-22T05:28:37.949Z,100.00
2023-03-22T05:31:05.987Z,100.00
2023-03-22T05:33:33.705Z,100.00
2023-03-22T05:36:01.518Z,100.00
2023-03-22T05:38:29.301Z,100.00
2023-03-22T05:40:57.062Z,100.00
2023-03-22T05:43:26.132Z,100.00
2023-03-22T05:45:53.698Z,100.00
2023-03-22T05:48:21.382Z,100.00
2023-03-22T05:50:49.032Z,100.00
2023-03-22T05:53:16.972Z,100.00
2023-03-22T05:55:44.602Z,100.00
2023-03-22T05:58:12.272Z,100.00
2023-03-22T06:00:41.451Z,100.00
2023-03-22T06:03:09.327Z,100.00
2023-03-22T06:05:36.914Z,100.00
2023-03-22T06:08:04.687Z,100.00
2023-03-22T06:10:32.474Z,100.00
2023-03-22T06:13:00.065Z,100.00
2023-03-22T06:15:27.832Z,100.00
2023-03-22T06:17:56.857Z,100.00
2023-03-22T06:20:24.518Z,100.00
2023-03-22T06:22:52.108Z,100.00
2023-03-22T06:25:19.727Z,100.00
2023-03-22T06:27:48.704Z,100.00
2023-03-22T06:30:16.438Z,100.00
2023-03-22T06:32:44.004Z,100.00
2023-03-22T06:35:13.581Z,100.00
2023-03-22T06:37:41.410Z,100.00
2023-03-22T06:40:10.911Z,100.00
2023-03-22T06:42:38.725Z,100.00
2023-03-22T06:45:07.629Z,100.00
2023-03-22T06:47:35.533Z,100.00
2023-03-22T06:50:04.204Z,100.00
2023-03-22T06:52:34.409Z,100.00
2023-03-22T06:55:02.059Z,100.00
2023-03-22T06:57:29.725Z,100.00
2023-03-22T06:59:57.335Z,100.00
2023-03-22T07:02:26.358Z,100.00
2023-03-22T07:04:54.052Z,100.00
2023-03-22T07:07:21.836Z,100.00
2023-03-22T07:09:50.711Z,100.00
2023-03-22T07:12:18.297Z,100.00
2023-03-22T07:14:47.295Z,100.00
2023-03-22T07:17:17.136Z,100.00
2023-03-22T07:19:45.992Z,100.00
2023-03-22T07:22:13.552Z,100.00
2023-03-22T07:24:53.742Z,100.00
2023-03-22T07:27:25.234Z,100.00
2023-03-22T07:29:53.010Z,100.00
2023-03-22T07:32:20.911Z,100.00
2023-03-22T07:34:49.545Z,100.00
2023-03-22T07:37:17.172Z,99.79
2023-03-22T07:39:46.074Z,83.04
2023-03-22T07:42:13.598Z,87.56
2023-03-22T07:44:42.722Z,100.00
2023-03-22T07:47:10.462Z,100.00
2023-03-22T07:49:38.083Z,98.11
2023-03-22T07:52:05.794Z,100.00
2023-03-22T07:54:34.591Z,100.00
2023-03-22T07:57:02.428Z,90.97
2023-03-22T07:59:30.083Z,100.00
2023-03-22T08:01:59.035Z,100.00
2023-03-22T08:04:26.702Z,100.00
2023-03-22T08:06:54.366Z,100.00
2023-03-22T08:09:21.902Z,100.00
2023-03-22T08:11:49.699Z,90.34
2023-03-22T08:14:22.205Z,74.48
2023-03-22T08:16:54.958Z,65.53
2023-03-22T08:19:26.274Z,84.53
2023-03-22T08:21:53.858Z,86.94
2023-03-22T08:24:21.602Z,81.21
2023-03-22T08:26:49.278Z,73.71
2023-03-22T08:29:17.059Z,61.85
2023-03-22T08:31:44.727Z,59.60
2023-03-22T08:34:12.312Z,57.41
2023-03-22T08:36:41.530Z,69.24
2023-03-22T08:39:11.657Z,68.63
2023-03-22T08:41:39.967Z,71.50
2023-03-22T08:44:07.661Z,100.00
2023-03-22T08:46:35.397Z,97.53
2023-03-22T08:49:03.150Z,85.70
2023-03-22T08:51:30.763Z,74.72
2023-03-22T08:54:02.003Z,76.56
2023-03-22T08:56:29.667Z,73.35
2023-03-22T08:58:57.271Z,70.07
2023-03-22T09:01:25.075Z,60.42
2023-03-22T09:03:52.780Z,65.87
2023-03-22T09:06:20.440Z,68.81
2023-03-22T09:08:48.083Z,80.58
2023-03-22T09:11:18.062Z,85.14
2023-03-22T09:13:46.095Z,87.45
2023-03-22T09:16:14.283Z,95.58
2023-03-22T09:18:43.038Z,100.00
2023-03-22T09:21:12.061Z,100.00
2023-03-22T09:23:39.814Z,100.00
2023-03-22T09:26:09.020Z,100.00
2023-03-22T09:28:37.954Z,100.00
2023-03-22T09:31:08.632Z,100.00
2023-03-22T09:33:38.298Z,100.00
2023-03-22T09:36:06.740Z,99.89
2023-03-22T09:38:34.607Z,88.98
2023-03-22T09:41:06.949Z,90.33
2023-03-22T09:43:40.635Z,93.52
2023-03-22T09:46:15.441Z,87.70
2023-03-22T09:48:48.376Z,73.17
2023-03-22T09:51:29.520Z,64.62
2023-03-22T09:53:57.339Z,66.12
2023-03-22T09:56:29.563Z,60.77
2023-03-22T09:59:12.197Z,64.85
2023-03-22T10:01:48.092Z,63.95
2023-03-22T10:04:41.009Z,60.91
2023-03-22T10:07:21.362Z,72.97
2023-03-22T10:10:03.541Z,68.29
2023-03-22T10:12:42.193Z,61.39
2023-03-22T10:15:14.974Z,64.69
2023-03-22T10:17:47.936Z,59.35
2023-03-22T10:20:29.621Z,53.83
2023-03-22T10:23:01.451Z,49.65
2023-03-22T10:25:35.280Z,53.86
2023-03-22T10:28:14.033Z,51.32
2023-03-22T10:30:47.279Z,65.08
2023-03-22T10:33:26.709Z,73.98
2023-03-22T10:35:56.578Z,68.12
2023-03-22T10:38:28.238Z,60.33
2023-03-22T10:40:59.227Z,60.74
2023-03-22T10:43:32.730Z,64.93
2023-03-22T10:46:04.965Z,57.86
2023-03-22T10:48:36.352Z,57.79
2023-03-22T10:51:05.152Z,57.38
2023-03-22T10:53:39.769Z,49.24
2023-03-22T10:56:13.688Z,41.20
2023-03-22T10:58:42.014Z,43.38
2023-03-22T11:01:16.699Z,44.31
2023-03-22T11:03:50.242Z,51.87
2023-03-22T11:06:23.890Z,69.18
2023-03-22T11:08:54.010Z,76.53
2023-03-22T11:11:25.051Z,71.51
2023-03-22T11:14:01.571Z,71.17
2023-03-22T11:16:40.818Z,64.70
2023-03-22T11:19:27.426Z,53.25
2023-03-22T11:21:55.808Z,64.91
2023-03-22T11:24:27.541Z,62.45
2023-03-22T11:27:07.294Z,68.46
2023-03-22T11:29:45.105Z,71.68
2023-03-22T11:32:26.139Z,77.06
2023-03-22T11:35:00.468Z,67.38
2023-03-22T11:37:28.370Z,81.42
2023-03-22T11:40:01.159Z,100.00
2023-03-22T11:42:28.814Z,100.00
2023-03-22T11:44:57.373Z,84.81
2023-03-22T11:47:36.537Z,64.53
2023-03-22T11:50:07.748Z,63.18
2023-03-22T11:52:36.711Z,72.73
2023-03-22T11:55:05.212Z,96.41
2023-03-22T11:57:36.937Z,79.15
2023-03-22T12:00:13.114Z,82.01
2023-03-22T12:02:49.662Z,62.81
2023-03-22T12:05:22.840Z,49.47
2023-03-22T12:07:58.111Z,50.72
2023-03-22T12:10:31.477Z,50.06
2023-03-22T12:13:06.170Z,53.62
2023-03-22T12:15:39.995Z,54.28
2023-03-22T12:18:19.201Z,44.83
2023-03-22T12:20:54.280Z,43.16
2023-03-22T12:23:24.884Z,42.81
2023-03-22T12:26:00.095Z,38.38
2023-03-22T12:28:34.795Z,42.99
2023-03-22T12:31:04.483Z,45.97
2023-03-22T12:33:43.052Z,47.25
2023-03-22T12:36:20.160Z,52.24
2023-03-22T12:38:53.798Z,54.24
2023-03-22T12:41:26.273Z,54.15
2023-03-22T12:43:56.647Z,45.28
2023-03-22T12:46:28.060Z,43.15
2023-03-22T12:49:05.076Z,39.15
2023-03-22T12:51:32.933Z,37.62
2023-03-22T12:54:02.597Z,47.23
2023-03-22T12:56:38.575Z,72.05
2023-03-22T12:59:15.492Z,84.48
2023-03-22T13:01:51.930Z,57.35
2023-03-22T13:04:32.140Z,64.33
2023-03-22T13:07:11.497Z,70.53
2023-03-22T13:09:42.676Z,77.31
2023-03-22T13:12:30.033Z,79.65
2023-03-22T13:15:31.605Z,86.65
2023-03-22T13:18:30.590Z,99.64
2023-03-22T13:21:16.390Z,89.01
2023-03-22T13:23:56.517Z,100.00
2023-03-22T13:26:34.943Z,80.11
2023-03-22T13:29:12.705Z,82.91
2023-03-22T13:31:45.036Z,78.52
2023-03-22T13:34:18.259Z,74.45
2023-03-22T13:36:55.130Z,65.94
2023-03-22T13:39:24.803Z,61.55
2023-03-22T13:42:17.893Z,47.92
2023-03-22T13:44:53.678Z,48.40
2023-03-22T13:47:34.845Z,50.05
2023-03-22T13:50:14.056Z,57.03
2023-03-22T13:52:54.224Z,55.29
2023-03-22T13:55:42.184Z,62.31
2023-03-22T13:58:31.651Z,60.38
2023-03-22T14:01:02.706Z,64.85
2023-03-22T14:03:36.032Z,66.56
2023-03-22T14:06:14.599Z,68.10
2023-03-22T14:08:49.900Z,93.66
2023-03-22T14:11:23.815Z,80.79
2023-03-22T14:13:59.126Z,60.69
2023-03-22T14:16:38.817Z,59.60
2023-03-22T14:19:13.802Z,70.66
